createdAt,value
2022-09-10T00:01:41.195Z,13.60
2022-09-10T00:04:12.543Z,13.50
2022-09-10T00:06:45.681Z,13.50
2022-09-10T00:09:19.204Z,13.50
2022-09-10T00:11:48.541Z,13.50
2022-09-10T00:14:18.313Z,13.50
2022-09-10T00:16:46.224Z,13.50
2022-09-10T00:19:14.829Z,13.50
2022-09-10T00:21:44.292Z,13.40
2022-09-10T00:24:12.391Z,13.50
2022-09-10T00:26:40.478Z,13.50
2022-09-10T00:29:11.492Z,13.60
2022-09-10T00:31:40.032Z,13.60
2022-09-10T00:34:09.072Z,13.60
2022-09-10T00:36:39.723Z,13.60
2022-09-10T00:39:09.796Z,13.60
2022-09-10T00:41:39.242Z,13.60
2022-09-10T00:44:25.271Z,13.70
2022-09-10T00:46:57.340Z,13.70
2022-09-10T00:49:39.017Z,13.70
2022-09-10T00:52:11.502Z,13.70
2022-09-10T00:54:51.501Z,13.80
2022-09-10T00:57:23.065Z,13.80
2022-09-10T00:59:55.417Z,13.80
2022-09-10T01:02:24.529Z,13.80
2022-09-10T01:05:01.121Z,13.80
2022-09-10T01:07:31.545Z,13.80
2022-09-10T01:10:04.254Z,13.70
2022-09-10T01:12:45.860Z,13.60
2022-09-10T01:15:27.795Z,13.60
2022-09-10T01:18:09.633Z,13.50
2022-09-10T01:21:04.444Z,13.40
2022-09-10T01:24:32.989Z,13.50
2022-09-10T01:27:31.030Z,13.40
2022-09-10T01:30:07.236Z,13.30
2022-09-10T01:32:42.207Z,13.40
2022-09-10T01:35:16.687Z,13.50
2022-09-10T01:37:49.238Z,13.50
2022-09-10T01:40:18.800Z,13.50
2022-09-10T01:42:47.175Z,13.50
2022-09-10T01:45:17.352Z,13.40
2022-09-10T01:48:10.765Z,13.40
2022-09-10T01:50:47.389Z,13.50
2022-09-10T01:53:53.067Z,13.50
2022-09-10T01:56:35.623Z,13.40
2022-09-10T01:59:14.370Z,13.40
2022-09-10T02:01:49.048Z,13.30
2022-09-10T02:04:18.767Z,13.20
2022-09-10T02:06:48.987Z,13.20
2022-09-10T02:09:19.348Z,13.10
2022-09-10T02:11:49.889Z,13.10
2022-09-10T02:14:18.207Z,13.00
2022-09-10T02:16:52.430Z,13.10
2022-09-10T02:19:20.829Z,13.10
2022-09-10T02:21:49.360Z,13.10
2022-09-10T02:24:17.152Z,13.10
2022-09-10T02:26:46.553Z,13.10
2022-09-10T02:29:16.537Z,13.10
2022-09-10T02:31:44.858Z,13.10
2022-09-10T02:34:15.783Z,13.00
2022-09-10T02:36:43.882Z,12.90
2022-09-10T02:39:11.628Z,12.80
2022-09-10T02:41:41.446Z,12.70
2022-09-10T02:44:09.740Z,12.70
2022-09-10T02:46:38.189Z,12.70
2022-09-10T02:49:06.123Z,12.70
2022-09-10T02:51:35.216Z,12.80
2022-09-10T02:54:03.008Z,12.70
2022-09-10T02:56:30.778Z,12.70
2022-09-10T02:58:58.539Z,12.70
2022-09-10T03:01:26.371Z,12.60
2022-09-10T03:03:56.275Z,12.60
2022-09-10T03:06:25.894Z,12.60
2022-09-10T03:08:55.657Z,12.60
2022-09-10T03:11:23.949Z,12.60
2022-09-10T03:13:52.063Z,12.50
2022-09-10T03:16:20.702Z,12.50
2022-09-10T03:18:48.709Z,12.50
2022-09-10T03:21:18.787Z,12.40
2022-09-10T03:23:49.028Z,12.40
2022-09-10T03:26:20.053Z,12.40
2022-09-10T03:28:50.106Z,12.40
2022-09-10T03:31:19.077Z,12.40
2022-09-10T03:33:47.079Z,12.50
2022-09-10T03:36:14.978Z,12.50
2022-09-10T03:38:42.819Z,12.60
2022-09-10T03:41:11.114Z,12.60
2022-09-10T03:43:40.309Z,12.60
2022-09-10T03:46:08.217Z,12.70
2022-09-10T03:48:35.999Z,12.60
2022-09-10T03:51:03.756Z,12.60
2022-09-10T03:53:31.545Z,12.70
2022-09-10T03:55:59.318Z,12.70
2022-09-10T03:58:28.576Z,12.60
2022-09-10T04:00:57.789Z,12.60
2022-09-10T04:03:25.960Z,12.50
2022-09-10T04:05:53.730Z,12.50
2022-09-10T04:08:21.836Z,12.50
2022-09-10T04:10:49.677Z,12.40
2022-09-10T04:13:17.441Z,12.40
2022-09-10T04:15:46.070Z,12.40
2022-09-10T04:18:15.553Z,12.40
2022-09-10T04:20:46.587Z,12.30
2022-09-10T04:23:14.509Z,12.30
2022-09-10T04:25:42.291Z,12.20
2022-09-10T04:28:11.337Z,12.20
2022-09-10T04:30:40.209Z,12.20
2022-09-10T04:33:08.118Z,12.20
2022-09-10T04:35:37.473Z,12.20
2022-09-10T04:38:05.266Z,12.30
2022-09-10T04:40:34.021Z,12.30
2022-09-10T04:43:01.978Z,12.20
2022-09-10T04:45:30.761Z,12.20
2022-09-10T04:48:00.852Z,12.10
2022-09-10T04:50:31.453Z,12.00
2022-09-10T04:53:01.170Z,12.00
2022-09-10T04:55:31.013Z,12.00
2022-09-10T04:57:58.805Z,12.10
2022-09-10T05:00:27.043Z,12.20
2022-09-10T05:02:54.819Z,12.10
2022-09-10T05:05:22.633Z,12.10
2022-09-10T05:07:50.416Z,12.10
2022-09-10T05:10:20.519Z,12.20
2022-09-10T05:12:48.411Z,12.20
2022-09-10T05:15:16.409Z,12.20
2022-09-10T05:17:44.174Z,12.30
2022-09-10T05:20:11.935Z,12.30
2022-09-10T05:22:40.807Z,12.30
2022-09-10T05:25:09.713Z,12.50
2022-09-10T05:27:38.876Z,12.50
2022-09-10T05:30:07.961Z,12.50
2022-09-10T05:32:35.753Z,12.60
2022-09-10T05:35:05.284Z,12.70
2022-09-10T05:37:33.106Z,12.80
2022-09-10T05:40:00.926Z,12.80
2022-09-10T05:42:29.282Z,12.90
2022-09-10T05:44:58.523Z,12.90
2022-09-10T05:47:27.921Z,13.00
2022-09-10T05:49:56.452Z,13.00
2022-09-10T05:52:24.444Z,13.10
2022-09-10T05:54:52.268Z,13.30
2022-09-10T05:57:20.186Z,13.30
2022-09-10T05:59:48.049Z,13.30
2022-09-10T06:02:23.818Z,13.40
2022-09-10T06:04:52.016Z,13.40
2022-09-10T06:07:19.823Z,13.30
2022-09-10T06:09:47.574Z,13.20
2022-09-10T06:12:17.112Z,13.30
2022-09-10T06:14:44.905Z,13.40
2022-09-10T06:17:12.929Z,13.40
2022-09-10T06:19:44.329Z,13.40
2022-09-10T06:22:12.714Z,13.60
2022-09-10T06:24:40.587Z,13.60
2022-09-10T06:27:08.586Z,13.70
2022-09-10T06:29:37.065Z,13.80
2022-09-10T06:32:05.156Z,13.80
2022-09-10T06:34:32.941Z,13.70
2022-09-10T06:37:03.253Z,13.80
2022-09-10T06:39:31.059Z,13.70
2022-09-10T06:41:58.848Z,13.70
2022-09-10T06:44:26.657Z,13.80
2022-09-10T06:47:30.783Z,13.90
2022-09-10T06:49:43.004Z,13.90
2022-09-10T06:52:13.015Z,13.90
2022-09-10T06:54:40.808Z,13.80
2022-09-10T06:57:08.551Z,13.90
2022-09-10T06:59:36.329Z,13.90
2022-09-10T07:02:04.244Z,13.90
2022-09-10T07:04:32.026Z,14.00
2022-09-10T07:07:00.711Z,14.10
2022-09-10T07:09:29.795Z,14.10
2022-09-10T07:11:57.721Z,14.10
2022-09-10T07:14:25.623Z,14.20
2022-09-10T07:16:53.467Z,14.30
2022-09-10T07:19:21.254Z,14.30
2022-09-10T07:21:50.115Z,14.40
2022-09-10T07:24:19.947Z,14.40
2022-09-10T07:26:49.186Z,14.40
2022-09-10T07:29:18.269Z,14.40
2022-09-10T07:31:48.127Z,14.40
2022-09-10T07:34:16.314Z,14.60
2022-09-10T07:36:44.082Z,14.60
2022-09-10T07:39:11.892Z,14.60
2022-09-10T07:41:39.649Z,14.70
2022-09-10T07:44:08.799Z,14.80
2022-09-10T07:46:37.902Z,14.90
2022-09-10T07:49:05.705Z,15.00
2022-09-10T07:51:35.648Z,15.30
2022-09-10T07:54:03.744Z,15.90
2022-09-10T07:56:33.953Z,16.40
2022-09-10T07:59:02.541Z,16.60
2022-09-10T08:01:32.018Z,16.70
2022-09-10T08:04:00.338Z,16.60
2022-09-10T08:06:28.161Z,16.40
2022-09-10T08:08:56.152Z,16.60
2022-09-10T08:11:24.105Z,16.60
2022-09-10T08:13:53.764Z,16.70
2022-09-10T08:16:23.459Z,16.80
2022-09-10T08:18:52.988Z,16.90
2022-09-10T08:21:20.857Z,16.80
2022-09-10T08:23:51.499Z,16.50
2022-09-10T08:26:20.004Z,16.00
2022-09-10T08:28:48.507Z,15.50
2022-09-10T08:31:16.689Z,15.60
2022-09-10T08:33:49.248Z,16.30
2022-09-10T08:36:19.558Z,16.60
2022-09-10T08:38:47.721Z,17.10
2022-09-10T08:41:28.156Z,17.00
2022-09-10T08:43:59.172Z,17.30
2022-09-10T08:46:38.061Z,17.40
2022-09-10T08:49:13.101Z,17.10
2022-09-10T08:51:49.061Z,16.50
2022-09-10T08:54:22.200Z,16.50
2022-09-10T08:56:50.965Z,16.90
2022-09-10T08:59:26.712Z,17.00
2022-09-10T09:01:59.866Z,17.30
2022-09-10T09:04:38.667Z,17.20
2022-09-10T09:07:14.177Z,17.20
2022-09-10T09:09:42.769Z,16.90
2022-09-10T09:12:22.661Z,17.20
2022-09-10T09:15:08.203Z,16.90
2022-09-10T09:17:59.843Z,16.70
2022-09-10T09:20:42.087Z,17.30
2022-09-10T09:23:21.685Z,17.40
2022-09-10T09:25:51.576Z,17.20
2022-09-10T09:28:33.525Z,17.30
2022-09-10T09:31:09.277Z,17.10
2022-09-10T09:33:39.956Z,17.20
2022-09-10T09:36:13.804Z,17.90
2022-09-10T09:38:46.179Z,18.10
2022-09-10T09:41:22.180Z,17.90
2022-09-10T09:43:55.746Z,16.90
2022-09-10T09:46:24.349Z,16.70
2022-09-10T09:48:57.046Z,16.60
2022-09-10T09:51:26.223Z,16.20
2022-09-10T09:54:25.814Z,16.50
2022-09-10T09:56:50.947Z,16.30
2022-09-10T09:59:27.858Z,16.30
2022-09-10T10:01:59.644Z,16.40
2022-09-10T10:04:30.999Z,16.30
2022-09-10T10:07:00.873Z,16.70
2022-09-10T10:09:32.515Z,16.90
2022-09-10T10:12:04.365Z,17.60
2022-09-10T10:14:41.387Z,17.60
2022-09-10T10:17:37.597Z,17.00
2022-09-10T10:20:11.221Z,17.10
2022-09-10T10:22:40.552Z,16.80
2022-09-10T10:25:36.807Z,16.50
2022-09-10T10:28:15.259Z,16.20
2022-09-10T10:30:46.856Z,15.90
2022-09-10T10:33:27.494Z,16.20
2022-09-10T10:36:09.264Z,16.20
2022-09-10T10:38:40.300Z,16.90
2022-09-10T10:41:34.298Z,17.30
2022-09-10T10:44:33.655Z,17.40
2022-09-10T10:47:16.474Z,16.90
2022-09-10T10:49:57.249Z,16.60
2022-09-10T10:52:35.133Z,16.00
2022-09-10T10:55:14.096Z,16.30
2022-09-10T10:57:59.652Z,16.80
2022-09-10T11:00:28.576Z,17.60
2022-09-10T11:03:04.499Z,17.80
2022-09-10T11:05:37.482Z,18.20
2022-09-10T11:08:10.629Z,18.10
2022-09-10T11:10:42.671Z,17.20
2022-09-10T11:13:16.085Z,17.30
2022-09-10T11:15:52.355Z,17.00
2022-09-10T11:18:27.230Z,16.90
2022-09-10T11:21:01.686Z,16.90
2022-09-10T11:23:33.648Z,17.00
2022-09-10T11:26:07.452Z,17.00
2022-09-10T11:28:40.733Z,17.20
2022-09-10T11:31:14.360Z,17.20
2022-09-10T11:33:53.232Z,17.20
2022-09-10T11:36:28.321Z,17.10
2022-09-10T11:39:08.290Z,17.00
2022-09-10T11:41:42.168Z,17.10
2022-09-10T11:44:35.844Z,17.30
2022-09-10T11:47:09.985Z,17.40
2022-09-10T11:49:49.197Z,17.30
2022-09-10T11:52:18.448Z,17.00
2022-09-10T11:54:47.606Z,17.30
2022-09-10T11:57:27.605Z,17.80
2022-09-10T12:00:11.854Z,18.10
2022-09-10T12:03:27.143Z,18.40
2022-09-10T12:06:01.203Z,18.10
2022-09-10T12:08:40.382Z,18.10
2022-09-10T12:11:20.279Z,17.80
2022-09-10T12:13:50.742Z,17.40
2022-09-10T12:16:27.000Z,17.70
2022-09-10T12:18:58.004Z,17.70
2022-09-10T12:21:34.535Z,17.80
2022-09-10T12:24:06.961Z,17.70
2022-09-10T12:26:43.552Z,17.90
2022-09-10T12:29:29.549Z,18.50
2022-09-10T12:32:28.546Z,18.30
2022-09-10T12:35:42.320Z,18.10
2022-09-10T12:38:47.851Z,18.50
2022-09-10T12:41:49.296Z,18.50
2022-09-10T12:44:53.940Z,18.20
2022-09-10T12:47:47.864Z,18.70
2022-09-10T12:50:37.287Z,18.50
2022-09-10T12:53:53.712Z,18.10
2022-09-10T12:56:52.705Z,17.90
2022-09-10T12:59:54.190Z,17.90
2022-09-10T13:02:29.634Z,18.00
2022-09-10T13:05:01.856Z,18.00
2022-09-10T13:07:40.178Z,18.80
2022-09-10T13:10:21.711Z,19.20
2022-09-10T13:12:53.006Z,18.70
2022-09-10T13:15:23.979Z,18.80
2022-09-10T13:18:23.899Z,19.40
2022-09-10T13:20:53.208Z,19.90
2022-09-10T13:23:47.522Z,19.50
2022-09-10T13:26:52.267Z,18.80
2022-09-10T13:29:33.487Z,18.80
2022-09-10T13:32:09.460Z,18.70
2022-09-10T13:35:12.811Z,18.20
2022-09-10T13:38:14.320Z,18.40
2022-09-10T13:41:22.629Z,18.60
2022-09-10T13:44:20.532Z,18.40
2022-09-10T13:46:53.150Z,18.40
2022-09-10T13:49:28.429Z,18.40
2022-09-10T13:51:59.476Z,18.30
2022-09-10T13:54:35.068Z,18.60
2022-09-10T13:57:10.798Z,18.40
2022-09-10T13:59:42.768Z,18.30
2022-09-10T14:02:19.741Z,18.10
2022-09-10T14:04:51.804Z,17.90
2022-09-10T14:07:26.340Z,18.10
2022-09-10T14:10:01.533Z,17.90
2022-09-10T14:12:34.171Z,17.70
2022-09-10T14:15:05.364Z,17.60
2022-09-10T14:17:41.324Z,17.70
2022-09-10T14:20:19.051Z,17.70
2022-09-10T14:22:50.415Z,17.80
2022-09-10T14:25:31.483Z,17.60
2022-09-10T14:28:23.500Z,17.50
2022-09-10T14:30:53.061Z,17.50
2022-09-10T14:33:29.273Z,17.40
2022-09-10T14:35:58.184Z,17.30
2022-09-10T14:38:29.028Z,17.30
2022-09-10T14:41:06.702Z,17.20
2022-09-10T14:43:47.375Z,17.30
2022-09-10T14:46:54.575Z,17.10
2022-09-10T14:49:27.485Z,17.10
2022-09-10T14:51:55.958Z,17.00
2022-09-10T14:54:24.441Z,17.00
2022-09-10T14:56:56.316Z,17.10
2022-09-10T14:59:30.402Z,16.60
2022-09-10T15:02:00.806Z,16.20
2022-09-10T15:04:30.665Z,15.70
2022-09-10T15:07:00.139Z,15.60
2022-09-10T15:09:29.447Z,15.40
2022-09-10T15:12:03.369Z,15.40
2022-09-10T15:14:32.738Z,15.70
2022-09-10T15:17:00.971Z,15.50
2022-09-10T15:19:29.019Z,15.80
2022-09-10T15:21:57.186Z,16.10
2022-09-10T15:24:25.917Z,16.30
2022-09-10T15:26:56.363Z,16.30
2022-09-10T15:29:26.094Z,16.30
2022-09-10T15:31:54.277Z,16.40
2022-09-10T15:34:22.109Z,16.40
2022-09-10T15:36:49.880Z,16.60
2022-09-10T15:39:17.737Z,16.80
2022-09-10T15:41:45.841Z,17.00
2022-09-10T15:44:13.856Z,17.30
2022-09-10T15:46:45.115Z,17.30
2022-09-10T15:49:13.108Z,17.20
2022-09-10T15:51:41.323Z,17.10
2022-09-10T15:54:11.004Z,17.00
2022-09-10T15:56:39.658Z,16.90
2022-09-10T15:59:08.700Z,16.70
2022-09-10T16:01:38.259Z,16.50
2022-09-10T16:04:08.271Z,16.40
2022-09-10T16:06:37.926Z,16.30
2022-09-10T16:09:09.064Z,16.30
2022-09-10T16:11:39.206Z,16.40
2022-09-10T16:14:08.481Z,16.30
2022-09-10T16:16:37.312Z,16.30
2022-09-10T16:19:06.900Z,16.30
2022-09-10T16:21:37.265Z,16.20
2022-09-10T16:24:06.839Z,16.10
2022-09-10T16:26:36.813Z,16.10
2022-09-10T16:29:07.203Z,15.90
2022-09-10T16:31:36.661Z,15.90
2022-09-10T16:34:08.716Z,15.90
2022-09-10T16:36:38.107Z,15.90
2022-09-10T16:39:12.191Z,15.70
2022-09-10T16:41:40.911Z,15.70
2022-09-10T16:44:09.431Z,15.70
2022-09-10T16:46:38.298Z,15.80
2022-09-10T16:49:12.458Z,15.80
2022-09-10T16:51:44.376Z,15.80
2022-09-10T16:54:13.828Z,15.60
2022-09-10T16:56:43.225Z,15.60
2022-09-10T16:59:14.998Z,15.60
2022-09-10T17:01:44.951Z,15.50
2022-09-10T17:04:19.763Z,15.40
2022-09-10T17:06:48.604Z,15.30
2022-09-10T17:09:16.612Z,15.40
2022-09-10T17:11:44.434Z,15.40
2022-09-10T17:14:12.397Z,15.30
2022-09-10T17:16:41.346Z,14.90
2022-09-10T17:19:14.313Z,14.20
2022-09-10T17:21:45.497Z,13.80
2022-09-10T17:24:14.175Z,13.70
2022-09-10T17:26:42.601Z,13.80
2022-09-10T17:29:14.505Z,13.80
2022-09-10T17:31:42.761Z,13.80
2022-09-10T17:34:13.134Z,13.90
2022-09-10T17:36:43.387Z,13.90
2022-09-10T17:39:11.806Z,13.90
2022-09-10T17:41:40.350Z,13.90
2022-09-10T17:44:08.936Z,13.90
2022-09-10T17:46:37.104Z,13.80
2022-09-10T17:49:05.677Z,13.80
2022-09-10T17:51:35.264Z,13.80
2022-09-10T17:54:04.597Z,13.80
2022-09-10T17:56:32.778Z,13.80
2022-09-10T17:59:02.863Z,13.80
2022-09-10T18:01:33.943Z,13.80
2022-09-10T18:04:02.893Z,13.80
2022-09-10T18:06:32.252Z,13.80
2022-09-10T18:09:01.790Z,13.70
2022-09-10T18:11:32.825Z,13.70
2022-09-10T18:14:01.354Z,13.70
2022-09-10T18:16:31.123Z,13.60
2022-09-10T18:19:01.043Z,13.50
2022-09-10T18:21:30.961Z,13.50
2022-09-10T18:24:01.131Z,13.40
2022-09-10T18:26:33.237Z,13.40
2022-09-10T18:29:03.122Z,13.30
2022-09-10T18:31:33.306Z,13.20
2022-09-10T18:34:03.319Z,13.20
2022-09-10T18:36:31.474Z,13.20
2022-09-10T18:39:02.519Z,13.10
2022-09-10T18:41:33.920Z,13.00
2022-09-10T18:44:03.990Z,13.00
2022-09-10T18:46:32.887Z,12.90
2022-09-10T18:49:01.792Z,12.90
2022-09-10T18:51:31.376Z,12.80
2022-09-10T18:54:01.183Z,12.80
2022-09-10T18:56:32.389Z,12.80
2022-09-10T18:59:05.205Z,12.80
2022-09-10T19:01:33.246Z,12.80
2022-09-10T19:04:03.050Z,12.80
2022-09-10T19:06:32.414Z,12.80
2022-09-10T19:09:04.280Z,12.70
2022-09-10T19:11:35.957Z,12.70
2022-09-10T19:14:06.656Z,12.70
2022-09-10T19:16:36.220Z,12.60
2022-09-10T19:19:06.828Z,12.60
2022-09-10T19:21:36.700Z,12.70
2022-09-10T19:24:05.243Z,12.70
2022-09-10T19:26:36.367Z,12.70
2022-09-10T19:29:05.593Z,12.70
2022-09-10T19:31:35.436Z,12.70
2022-09-10T19:34:05.597Z,12.70
2022-09-10T19:36:35.430Z,12.70
2022-09-10T19:39:04.814Z,12.80
2022-09-10T19:41:35.332Z,12.80
2022-09-10T19:44:04.140Z,12.80
2022-09-10T19:46:32.791Z,12.80
2022-09-10T19:49:19.193Z,12.80
2022-09-10T19:51:47.023Z,12.70
2022-09-10T19:54:14.832Z,12.70
2022-09-10T19:56:44.101Z,12.70
2022-09-10T19:59:12.734Z,12.70
2022-09-10T20:01:45.810Z,12.70
2022-09-10T20:04:14.338Z,12.70
2022-09-10T20:06:45.762Z,12.60
2022-09-10T20:09:13.497Z,12.60
2022-09-10T20:11:42.666Z,12.60
2022-09-10T20:14:13.824Z,12.60
2022-09-10T20:16:43.796Z,12.60
2022-09-10T20:19:13.210Z,12.60
2022-09-10T20:21:42.141Z,12.60
2022-09-10T20:24:10.198Z,12.70
2022-09-10T20:26:40.894Z,12.70
2022-09-10T20:29:13.246Z,12.70
2022-09-10T20:31:43.219Z,12.70
2022-09-10T20:34:14.514Z,12.70
2022-09-10T20:36:42.942Z,12.60
2022-09-10T20:39:13.606Z,12.60
2022-09-10T20:41:41.818Z,12.60
2022-09-10T20:44:13.522Z,12.60
2022-09-10T20:46:42.340Z,12.60
2022-09-10T20:49:12.316Z,12.60
2022-09-10T20:51:41.171Z,12.60
2022-09-10T20:54:11.941Z,12.60
2022-09-10T20:56:40.150Z,12.60
2022-09-10T20:59:07.894Z,12.60
2022-09-10T21:01:37.093Z,12.60
2022-09-10T21:04:04.883Z,12.60
2022-09-10T21:06:34.465Z,12.60
2022-09-10T21:09:03.040Z,12.70
2022-09-10T21:11:32.866Z,12.60
2022-09-10T21:14:02.299Z,12.60
2022-09-10T21:16:31.601Z,12.50
2022-09-10T21:19:02.073Z,12.50
2022-09-10T21:21:31.599Z,12.60
2022-09-10T21:24:00.782Z,12.60
2022-09-10T21:26:30.434Z,12.60
2022-09-10T21:29:00.029Z,12.50
2022-09-10T21:31:28.984Z,12.50
2022-09-10T21:34:02.431Z,12.50
2022-09-10T21:36:32.443Z,12.50
2022-09-10T21:39:01.545Z,12.40
2022-09-10T21:41:31.600Z,12.40
2022-09-10T21:44:00.412Z,12.40
2022-09-10T21:46:29.349Z,12.40
2022-09-10T21:48:57.324Z,12.40
2022-09-10T21:51:27.741Z,12.40
2022-09-10T21:53:58.112Z,12.40
2022-09-10T21:56:27.804Z,12.30
2022-09-10T21:58:56.600Z,12.30
2022-09-10T22:01:26.883Z,12.30
2022-09-10T22:03:57.147Z,12.30
2022-09-10T22:06:26.679Z,12.30
2022-09-10T22:08:58.572Z,12.30
2022-09-10T22:11:30.360Z,12.30
2022-09-10T22:14:00.988Z,12.30
2022-09-10T22:16:30.977Z,12.30
2022-09-10T22:19:00.502Z,12.30
2022-09-10T22:21:29.098Z,12.20
2022-09-10T22:23:58.207Z,12.30
2022-09-10T22:26:28.425Z,12.30
2022-09-10T22:28:59.406Z,12.30
2022-09-10T22:31:31.198Z,12.20
2022-09-10T22:34:01.179Z,12.20
2022-09-10T22:36:31.413Z,12.20
2022-09-10T22:39:02.437Z,12.30
2022-09-10T22:41:31.623Z,12.30
2022-09-10T22:43:59.528Z,12.30
2022-09-10T22:46:28.400Z,12.30
2022-09-10T22:48:56.829Z,12.30
2022-09-10T22:51:26.803Z,12.30
2022-09-10T22:53:56.160Z,12.30
2022-09-10T22:56:27.043Z,12.30
2022-09-10T22:58:55.978Z,12.30
2022-09-10T23:01:27.382Z,12.30
2022-09-10T23:03:57.440Z,12.30
2022-09-10T23:06:27.839Z,12.40
2022-09-10T23:08:57.364Z,12.40
2022-09-10T23:11:28.946Z,12.40
2022-09-10T23:13:58.846Z,12.30
2022-09-10T23:16:28.726Z,12.40
2022-09-10T23:18:58.378Z,12.40
2022-09-10T23:21:28.632Z,12.40
2022-09-10T23:23:59.885Z,12.40
2022-09-10T23:26:29.964Z,12.30
2022-09-10T23:28:58.606Z,12.30
2022-09-10T23:31:28.329Z,12.40
2022-09-10T23:33:58.232Z,12.40
2022-09-10T23:36:27.054Z,12.40
2022-09-10T23:38:55.124Z,12.40
2022-09-10T23:41:22.886Z,12.40
2022-09-10T23:43:51.946Z,12.40
2022-09-10T23:46:19.752Z,12.40
2022-09-10T23:48:47.558Z,12.40
2022-09-10T23:51:16.982Z,12.40
2022-09-10T23:53:45.891Z,12.30
2022-09-10T23:56:13.992Z,12.20
2022-09-10T23:58:42.016Z,12.20
